Time;durP1;ratioP1;P1;durP2;ratioP2;P2;SDS_P1;SDS_P2;PMS_P1;PMS_P2;Temp;Humidity;BMP_temperature;BMP_pressure;BME280_temperature;BME280_humidity;BME280_pressure;Samples;Min_cycle;Max_cycle;Signal;HPM_P1;HPM_P2
2024/04/04 00:00:29;;;;;;;;;;;;;;;20.44;52.59;100248.97;2052090;28;6448;-78
2024/04/04 00:01:30;;;;;;;;;;;;;;;20.44;52.81;100237.44;2053103;28;3455;-77
2024/04/04 00:02:30;;;;;;;;;;;;;;;20.44;52.61;100245.34;2054766;28;2116;-77
2024/04/04 00:03:30;;;;;;;;;;;;;;;20.43;52.65;100240.97;2056673;28;2225;-77
2024/04/04 00:04:31;;;;;;;;;;;;;;;20.42;52.57;100239.53;2059884;28;2424;-77
2024/04/04 00:05:32;;;;;;;;;;;;;;;20.42;52.89;100239.53;2049025;28;1972;-77
2024/04/04 00:06:34;;;;;;;;;;;;;;;20.42;52.61;100239.53;2060857;28;1799;-77
2024/04/04 00:07:35;;;;;;;;;;;;;;;20.42;52.80;100236.66;2054243;28;1984;-77
2024/04/04 00:08:35;;;;;;;;;;;;;;;20.41;52.92;100238.78;2053103;28;1782;-77
2024/04/04 00:09:35;;;;;;;;;;;;;;;20.41;52.57;100243.78;2060773;28;2207;-77
2024/04/04 00:10:36;;;;;;;;;;;;;;;20.40;52.81;100237.31;2060140;28;2264;-76
2024/04/04 00:11:36;;;;;;;;;;;;;;;20.40;52.81;100240.19;2057070;28;1711;-78
2024/04/04 00:12:37;;;;;;;;;;;;;;;20.39;52.63;100247.34;2059228;28;2728;-76
2024/04/04 00:13:37;;;;;;;;;;;;;;;20.39;52.61;100244.47;2053977;28;2156;-77
2024/04/04 00:14:38;;;;;;;;;;;;;;;20.39;52.59;100241.59;2054225;28;2217;-77
2024/04/04 00:15:38;;;;;;;;;;;;;;;20.40;52.45;100242.31;2054350;28;1894;-77
2024/04/04 00:16:39;;;;;;;;;;;;;;;20.39;52.71;100247.34;2051725;28;1663;-76
2024/04/04 00:17:39;;;;;;;;;;;;;;;20.38;52.75;100239.38;2049855;28;3503;-77
2024/04/04 00:18:42;;;;;;;;;;;;;;;20.38;52.63;100242.97;2065311;28;1754;-76
2024/04/04 00:19:43;;;;;;;;;;;;;;;20.38;52.88;100240.09;2054442;28;1618;-77
2024/04/04 00:20:43;;;;;;;;;;;;;;;20.39;52.85;100240.84;2061109;28;2204;-77
2024/04/04 00:21:44;;;;;;;;;;;;;;;20.38;52.85;100240.09;2059229;28;2201;-78
2024/04/04 00:22:45;;;;;;;;;;;;;;;20.38;52.82;100234.34;2049984;28;1553;-77
2024/04/04 00:23:45;;;;;;;;;;;;;;;20.38;52.82;100245.84;2059914;28;1889;-76
2024/04/04 00:24:46;;;;;;;;;;;;;;;20.37;52.62;100247.25;2058381;28;1754;-78
2024/04/04 00:25:47;;;;;;;;;;;;;;;20.36;52.64;100239.28;2049623;28;2263;-76
2024/04/04 00:26:47;;;;;;;;;;;;;;;20.37;52.66;100241.50;2054828;28;2083;-77
2024/04/04 00:27:48;;;;;;;;;;;;;;;20.35;52.97;100252.94;2051740;28;1664;-77
2024/04/04 00:28:48;;;;;;;;;;;;;;;20.35;52.85;100241.44;2056192;28;1589;-77
2024/04/04 00:29:49;;;;;;;;;;;;;;;20.36;52.92;100247.91;2051721;28;2155;-77
2024/04/04 00:30:49;;;;;;;;;;;;;;;20.35;52.85;100244.31;2058150;28;6167;-78
2024/04/04 00:31:49;;;;;;;;;;;;;;;20.34;52.85;100245.72;2049711;28;2465;-77
2024/04/04 00:32:50;;;;;;;;;;;;;;;20.34;52.94;100239.22;2047853;28;2030;-77
2024/04/04 00:33:51;;;;;;;;;;;;;;;20.33;52.72;100240.63;2045747;28;2275;-76
2024/04/04 00:34:52;;;;;;;;;;;;;;;20.33;52.95;100244.22;2051222;28;3514;-77
2024/04/04 00:35:52;;;;;;;;;;;;;;;20.32;52.78;100245.66;2051967;28;1746;-77
2024/04/04 00:36:52;;;;;;;;;;;;;;;20.33;52.82;100244.22;2044100;28;2250;-77
2024/04/04 00:37:53;;;;;;;;;;;;;;;20.32;52.72;100244.88;2047479;29;2213;-77
2024/04/04 00:38:53;;;;;;;;;;;;;;;20.30;52.64;100234.06;2055428;28;1865;-77
2024/04/04 00:39:54;;;;;;;;;;;;;;;20.33;52.81;100243.50;2055310;28;1674;-77
2024/04/04 00:40:54;;;;;;;;;;;;;;;20.32;52.80;100248.53;2045633;28;2400;-76
2024/04/04 00:41:54;;;;;;;;;;;;;;;20.32;52.91;100248.53;2046466;28;2179;-77
2024/04/04 00:42:58;;;;;;;;;;;;;;;20.32;52.78;100245.66;2047597;29;1871;-77
2024/04/04 00:43:59;;;;;;;;;;;;;;;20.30;52.69;100248.44;2053878;28;1880;-77
2024/04/04 00:45:00;;;;;;;;;;;;;;;20.30;52.71;100239.81;2046202;28;2247;-77
2024/04/04 00:46:00;;;;;;;;;;;;;;;20.31;53.01;100247.03;2046340;29;1903;-77
2024/04/04 00:47:01;;;;;;;;;;;;;;;20.30;52.92;100242.69;2053250;28;1598;-77
2024/04/04 00:48:01;;;;;;;;;;;;;;;20.30;52.96;100242.69;2054915;28;2183;-76
2024/04/04 00:49:02;;;;;;;;;;;;;;;20.30;52.76;100245.56;2046717;28;2272;-77
2024/04/04 00:50:02;;;;;;;;;;;;;;;20.29;52.92;100244.09;2046758;29;1875;-77
2024/04/04 00:51:03;;;;;;;;;;;;;;;20.29;52.94;100244.09;2045300;28;3411;-74
2024/04/04 00:52:08;;;;;;;;;;;;;;;20.28;52.85;100239.75;2054197;28;2073;-77
2024/04/04 00:53:09;;;;;;;;;;;;;;;20.29;52.83;100244.09;2055424;28;1696;-77
2024/04/04 00:54:09;;;;;;;;;;;;;;;20.29;52.92;100229.72;2045162;29;1934;-77
2024/04/04 00:55:10;;;;;;;;;;;;;;;20.29;52.83;100238.34;2043881;28;2211;-77
2024/04/04 00:56:11;;;;;;;;;;;;;;;20.27;52.75;100244.75;2054392;28;2108;-78
2024/04/04 00:57:11;;;;;;;;;;;;;;;20.27;52.79;100246.88;2047214;29;1976;-78
2024/04/04 00:58:12;;;;;;;;;;;;;;;20.28;52.78;100239.75;2046059;28;1886;-77
2024/04/04 00:59:13;;;;;;;;;;;;;;;20.28;53.13;100248.38;2054380;28;2255;-76
2024/04/04 01:00:13;;;;;;;;;;;;;;;20.27;52.82;100241.13;2047801;28;6075;-77
2024/04/04 01:01:14;;;;;;;;;;;;;;;20.27;52.71;100239.00;2045505;28;2517;-77
2024/04/04 01:02:14;;;;;;;;;;;;;;;20.28;52.71;100242.63;2051955;28;2321;-76
2024/04/04 01:03:14;;;;;;;;;;;;;;;20.27;52.96;100241.88;2055410;28;2219;-77
2024/04/04 01:04:15;;;;;;;;;;;;;;;20.28;52.85;100245.50;2046870;28;2243;-77
2024/04/04 01:05:15;;;;;;;;;;;;;;;20.27;52.72;100241.13;2052306;28;2214;-77
2024/04/04 01:06:28;;;;;;;;;;;;;;;20.26;52.75;100239.66;2054502;28;1909;-77
2024/04/04 01:07:29;;;;;;;;;;;;;;;20.27;52.67;100235.38;2055630;28;2126;-77
2024/04/04 01:08:30;;;;;;;;;;;;;;;20.26;52.98;100237.53;2053080;28;3484;-78
2024/04/04 01:09:30;;;;;;;;;;;;;;;20.25;53.04;100238.19;2046776;28;2211;-77
2024/04/04 01:10:31;;;;;;;;;;;;;;;20.25;52.76;100241.06;2043488;28;2344;-77
2024/04/04 01:11:31;;;;;;;;;;;;;;;20.25;52.83;100241.06;2046612;28;2183;-77
2024/04/04 01:12:31;;;;;;;;;;;;;;;20.25;53.03;100233.19;2045438;28;2320;-77
2024/04/04 01:13:32;;;;;;;;;;;;;;;20.24;52.98;100248.22;2055445;28;2245;-77
2024/04/04 01:14:32;;;;;;;;;;;;;;;20.24;52.70;100242.47;2054664;28;2044;-77
2024/04/04 01:15:32;;;;;;;;;;;;;;;20.24;52.96;100248.22;2046969;28;1708;-76
2024/04/04 01:16:33;;;;;;;;;;;;;;;20.24;53.02;100239.59;2045030;29;2247;-76
2024/04/04 01:17:34;;;;;;;;;;;;;;;20.23;53.00;100235.97;2052910;28;1906;-77
2024/04/04 01:18:34;;;;;;;;;;;;;;;20.23;53.08;100241.72;2054520;28;2131;-77
2024/04/04 01:19:35;;;;;;;;;;;;;;;20.23;53.03;100241.72;2052871;28;2191;-77
2024/04/04 01:20:35;;;;;;;;;;;;;;;20.24;52.93;100242.47;2053971;28;2257;-77
2024/04/04 01:21:35;;;;;;;;;;;;;;;20.23;52.96;100238.84;2044197;28;2235;-77
2024/04/04 01:22:36;;;;;;;;;;;;;;;20.23;52.88;100241.00;2042424;29;2419;-76
2024/04/04 01:23:40;;;;;;;;;;;;;;;20.23;53.02;100241.00;2047979;28;2196;-77
2024/04/04 01:24:40;;;;;;;;;;;;;;;20.23;52.92;100241.00;2047988;28;1822;-77
2024/04/04 01:25:40;;;;;;;;;;;;;;;20.24;53.00;100239.59;2046566;28;2062;-77
2024/04/04 01:26:41;;;;;;;;;;;;;;;20.22;52.81;100242.38;2052796;28;3912;-76
2024/04/04 01:27:41;;;;;;;;;;;;;;;20.22;52.87;100242.38;2053159;28;1888;-77
2024/04/04 01:28:42;;;;;;;;;;;;;;;20.21;52.82;100232.28;2052137;28;2120;-78
2024/04/04 01:29:42;;;;;;;;;;;;;;;20.21;52.95;100235.16;2041230;28;1956;-78
2024/04/04 01:30:43;;;;;;;;;;;;;;;20.21;53.01;100227.28;2046404;28;8531;-76
2024/04/04 01:31:43;;;;;;;;;;;;;;;20.21;52.98;100235.16;2059824;28;2097;-77
2024/04/04 01:32:43;;;;;;;;;;;;;;;20.20;53.02;100230.81;2059128;28;2185;-77
2024/04/04 01:33:44;;;;;;;;;;;;;;;20.20;53.03;100230.81;2049459;28;1921;-76
2024/04/04 01:34:44;;;;;;;;;;;;;;;20.20;52.82;100225.81;2058685;28;2221;-76
2024/04/04 01:35:45;;;;;;;;;;;;;;;20.20;52.98;100240.19;2061383;28;2024;-76
2024/04/04 01:36:45;;;;;;;;;;;;;;;20.20;52.99;100239.44;2054558;28;1604;-77
2024/04/04 01:37:46;;;;;;;;;;;;;;;20.19;52.75;100238.69;2056535;28;2134;-77
2024/04/04 01:38:46;;;;;;;;;;;;;;;20.19;53.02;100229.34;2061477;28;2075;-77
2024/04/04 01:39:46;;;;;;;;;;;;;;;20.19;53.05;100229.34;2051472;28;1997;-76
2024/04/04 01:40:47;;;;;;;;;;;;;;;20.19;53.05;100235.09;2057715;28;2087;-76
2024/04/04 01:41:47;;;;;;;;;;;;;;;20.18;53.13;100234.38;2052733;28;2242;-78
2024/04/04 01:42:48;;;;;;;;;;;;;;;20.20;53.00;100233.69;2052012;28;3463;-77
2024/04/04 01:43:48;;;;;;;;;;;;;;;20.19;53.03;100229.34;2059218;28;1659;-77
2024/04/04 01:44:48;;;;;;;;;;;;;;;20.19;52.91;100235.09;2062556;28;1655;-76
2024/04/04 01:45:49;;;;;;;;;;;;;;;20.18;52.97;100230.72;2051883;28;1791;-76
2024/04/04 01:46:49;;;;;;;;;;;;;;;20.19;53.12;100232.94;2061731;28;1907;-77
2024/04/04 01:47:50;;;;;;;;;;;;;;;20.18;53.06;100227.84;2060959;28;2219;-76
2024/04/04 01:48:50;;;;;;;;;;;;;;;20.18;52.81;100233.59;2049465;28;2678;-76
2024/04/04 01:49:51;;;;;;;;;;;;;;;20.18;52.80;100233.59;2051240;28;2330;-76
2024/04/04 01:50:51;;;;;;;;;;;;;;;20.18;52.92;100233.59;2056253;28;2149;-77
2024/04/04 01:51:51;;;;;;;;;;;;;;;20.18;52.95;100233.59;2059302;28;1720;-77
2024/04/04 01:52:52;;;;;;;;;;;;;;;20.17;53.05;100237.88;2055162;28;2049;-76
2024/04/04 01:53:52;;;;;;;;;;;;;;;20.16;53.09;100225.66;2054561;28;1973;-76
2024/04/04 01:54:53;;;;;;;;;;;;;;;20.17;53.12;100237.88;2059239;28;2149;-77
2024/04/04 01:55:59;;;;;;;;;;;;;;;20.16;53.08;100231.41;2057311;28;1869;-77
2024/04/04 01:57:00;;;;;;;;;;;;;;;20.17;53.06;100235.00;2052096;28;2219;-77
2024/04/04 01:58:00;;;;;;;;;;;;;;;20.16;53.03;100228.53;2050516;28;2210;-77
2024/04/04 01:59:01;;;;;;;;;;;;;;;20.16;52.85;100227.78;2053191;28;2253;-78
2024/04/04 02:00:01;;;;;;;;;;;;;;;20.16;53.06;100236.41;2051460;28;6200;-74
2024/04/04 02:01:01;;;;;;;;;;;;;;;20.16;53.00;100231.41;2054947;28;2650;-77
2024/04/04 02:02:02;;;;;;;;;;;;;;;20.16;53.04;100227.78;2054025;28;1960;-77
2024/04/04 02:03:02;;;;;;;;;;;;;;;20.15;53.04;100223.44;2059657;28;2169;-77
2024/04/04 02:04:03;;;;;;;;;;;;;;;20.15;53.02;100229.91;2060445;28;1854;-76
2024/04/04 02:05:03;;;;;;;;;;;;;;;20.14;53.06;100230.59;2055286;28;1867;-77
2024/04/04 02:06:04;;;;;;;;;;;;;;;20.15;53.10;100232.06;2049327;28;2386;-76
2024/04/04 02:07:04;;;;;;;;;;;;;;;20.15;52.79;100235.66;2051399;28;2214;-76
2024/04/04 02:08:05;;;;;;;;;;;;;;;20.15;52.86;100229.19;2055288;28;1957;-77
2024/04/04 02:09:06;;;;;;;;;;;;;;;20.14;53.10;100233.47;2054143;28;1750;-77
2024/04/04 02:10:06;;;;;;;;;;;;;;;20.14;53.10;100239.22;2058266;28;2364;-76
2024/04/04 02:11:07;;;;;;;;;;;;;;;20.13;52.93;100229.84;2050181;28;1748;-76
2024/04/04 02:12:09;;;;;;;;;;;;;;;20.13;53.07;100234.84;2057477;28;1957;-77
2024/04/04 02:13:09;;;;;;;;;;;;;;;20.12;52.91;100230.53;2057836;28;2134;-77
2024/04/04 02:14:10;;;;;;;;;;;;;;;20.12;53.08;100230.53;2050078;28;2344;-77
2024/04/04 02:15:10;;;;;;;;;;;;;;;20.12;53.02;100231.25;2053286;28;1786;-77
2024/04/04 02:16:11;;;;;;;;;;;;;;;20.12;53.07;100227.66;2058783;28;3384;-77
2024/04/04 02:17:11;;;;;;;;;;;;;;;20.12;53.05;100233.41;2059623;28;2274;-76
2024/04/04 02:18:12;;;;;;;;;;;;;;;20.13;52.97;100234.84;2054573;28;1917;-76
2024/04/04 02:19:12;;;;;;;;;;;;;;;20.12;52.87;100228.38;2053748;28;1926;-77
2024/04/04 02:20:13;;;;;;;;;;;;;;;20.12;53.06;100227.66;2053755;28;2206;-77
2024/04/04 02:21:14;;;;;;;;;;;;;;;20.12;52.85;100231.25;2054356;28;2252;-76
2024/04/04 02:22:14;;;;;;;;;;;;;;;20.12;53.09;100242.03;2054108;28;2143;-76
2024/04/04 02:23:15;;;;;;;;;;;;;;;20.12;52.91;100242.03;2048851;28;2060;-76
2024/04/04 02:24:15;;;;;;;;;;;;;;;20.11;52.87;100229.03;2050924;28;1668;-76
2024/04/04 02:25:15;;;;;;;;;;;;;;;20.11;52.94;100229.03;2048528;28;2163;-77
2024/04/04 02:26:16;;;;;;;;;;;;;;;20.11;52.87;100229.03;2055325;28;2823;-76
2024/04/04 02:27:16;;;;;;;;;;;;;;;20.11;52.90;100231.91;2057281;28;1877;-76
2024/04/04 02:28:16;;;;;;;;;;;;;;;20.11;53.05;100237.66;2051222;28;1742;-76
2024/04/04 02:29:17;;;;;;;;;;;;;;;20.09;53.08;100233.31;2049557;28;2338;-76
2024/04/04 02:30:17;;;;;;;;;;;;;;;20.09;53.07;100229.72;2055536;28;6120;-77
2024/04/04 02:31:18;;;;;;;;;;;;;;;20.09;53.03;100226.84;2058781;28;1595;-77
2024/04/04 02:32:18;;;;;;;;;;;;;;;20.09;52.86;100233.31;2050392;28;2232;-76
2024/04/04 02:33:18;;;;;;;;;;;;;;;20.09;52.97;100230.44;2049911;28;2280;-77
2024/04/04 02:34:19;;;;;;;;;;;;;;;20.08;53.07;100226.06;2058856;28;2354;-76
2024/04/04 02:35:19;;;;;;;;;;;;;;;20.09;52.99;100232.59;2058512;28;1702;-76
2024/04/04 02:36:20;;;;;;;;;;;;;;;20.11;53.09;100229.03;2051079;28;2210;-77
2024/04/04 02:37:20;;;;;;;;;;;;;;;20.09;53.11;100233.31;2051361;28;2274;-77
2024/04/04 02:38:21;;;;;;;;;;;;;;;20.09;53.09;100233.31;2061038;28;2204;-76
2024/04/04 02:39:22;;;;;;;;;;;;;;;20.08;52.88;100249.06;2060703;28;2164;-77
2024/04/04 02:40:22;;;;;;;;;;;;;;;20.09;52.89;100236.19;2061255;28;2177;-76
2024/04/04 02:41:22;;;;;;;;;;;;;;;20.08;52.87;100231.81;2052904;28;2148;-78
2024/04/04 02:42:23;;;;;;;;;;;;;;;20.08;53.07;100234.69;2050896;28;1795;-77
2024/04/04 02:43:24;;;;;;;;;;;;;;;20.08;53.07;100234.69;2057848;28;2263;-77
2024/04/04 02:44:25;;;;;;;;;;;;;;;20.07;53.01;100233.25;2057564;28;1977;-77
2024/04/04 02:45:26;;;;;;;;;;;;;;;20.09;53.10;100233.31;2052525;28;1668;-76
2024/04/04 02:46:26;;;;;;;;;;;;;;;20.09;53.06;100239.06;2051472;28;2259;-76
2024/04/04 02:47:27;;;;;;;;;;;;;;;20.08;52.98;100231.81;2052072;28;2300;-77
2024/04/04 02:48:27;;;;;;;;;;;;;;;20.07;52.83;100230.38;2051296;28;2061;-76
2024/04/04 02:49:28;;;;;;;;;;;;;;;20.11;52.83;100231.91;2056359;28;2250;-76
2024/04/04 02:50:28;;;;;;;;;;;;;;;20.11;52.98;100229.75;2061820;28;2153;-76
2024/04/04 02:51:32;;;;;;;;;;;;;;;20.11;52.99;100221.13;2051353;28;2588;-77
2024/04/04 02:52:32;;;;;;;;;;;;;;;20.12;52.75;100230.53;2058349;28;2316;-77
2024/04/04 02:53:33;;;;;;;;;;;;;;;20.13;52.94;100226.22;2058444;28;2274;-75
2024/04/04 02:54:33;;;;;;;;;;;;;;;20.14;52.70;100230.59;2055830;28;2229;-76
2024/04/04 02:55:34;;;;;;;;;;;;;;;20.14;52.71;100221.97;2054775;28;2325;-76
2024/04/04 02:56:34;;;;;;;;;;;;;;;20.15;52.79;100232.78;2054098;28;2349;-76
2024/04/04 02:57:38;;;;;;;;;;;;;;;20.16;52.86;100230.66;2058644;28;2035;-77
2024/04/04 02:58:38;;;;;;;;;;;;;;;20.18;52.60;100224.97;2062933;28;1646;-76
2024/04/04 02:59:38;;;;;;;;;;;;;;;20.18;52.59;100227.84;2057573;28;2001;-76
2024/04/04 03:00:39;;;;;;;;;;;;;;;20.18;52.69;100222.88;2053909;28;6177;-78
2024/04/04 03:01:39;;;;;;;;;;;;;;;20.21;52.81;100226.56;2053085;28;2243;-77
2024/04/04 03:02:40;;;;;;;;;;;;;;;20.21;52.71;100212.19;2057687;28;2537;-77
2024/04/04 03:03:40;;;;;;;;;;;;;;;20.22;52.45;100225.13;2066655;28;2071;-78
2024/04/04 03:04:40;;;;;;;;;;;;;;;20.21;52.44;100221.53;2060273;28;2168;-76
2024/04/04 03:05:41;;;;;;;;;;;;;;;20.21;52.66;100224.41;2049616;28;1687;-78
2024/04/04 03:06:42;;;;;;;;;;;;;;;20.21;52.49;100224.41;2052966;28;3522;-76
2024/04/04 03:07:42;;;;;;;;;;;;;;;20.22;52.46;100225.13;2055875;28;2237;-77
2024/04/04 03:08:43;;;;;;;;;;;;;;;20.23;52.51;100223.75;2052113;28;2566;-77
2024/04/04 03:09:43;;;;;;;;;;;;;;;20.22;52.55;100222.25;2063150;28;1737;-76
2024/04/04 03:10:44;;;;;;;;;;;;;;;20.22;52.53;100222.25;2051861;28;2439;-78
2024/04/04 03:11:44;;;;;;;;;;;;;;;20.21;52.69;100220.81;2052142;28;2406;-78
2024/04/04 03:12:49;;;;;;;;;;;;;;;20.22;52.54;100210.75;2049345;28;2326;-77
2024/04/04 03:13:50;;;;;;;;;;;;;;;20.22;52.45;100222.25;2055713;28;2150;-77
2024/04/04 03:14:50;;;;;;;;;;;;;;;20.20;52.49;100220.06;2054686;28;2175;-78
2024/04/04 03:15:54;;;;;;;;;;;;;;;20.21;52.56;100217.94;2053452;28;2024;-77
2024/04/04 03:16:54;;;;;;;;;;;;;;;20.21;52.66;100235.16;2055368;28;2221;-78
2024/04/04 03:17:55;;;;;;;;;;;;;;;20.20;52.84;100222.19;2050208;28;1918;-78
2024/04/04 03:18:55;;;;;;;;;;;;;;;20.19;52.69;100220.72;2059370;28;2355;-78
2024/04/04 03:19:56;;;;;;;;;;;;;;;20.20;52.80;100230.81;2060957;28;1939;-77
2024/04/04 03:20:56;;;;;;;;;;;;;;;20.20;52.75;100225.81;2050627;28;1962;-77
2024/04/04 03:21:56;;;;;;;;;;;;;;;20.20;52.62;100225.06;2067398;28;1706;-77
2024/04/04 03:22:58;;;;;;;;;;;;;;;20.19;52.72;100224.31;2058340;28;2267;-78
2024/04/04 03:23:58;;;;;;;;;;;;;;;20.19;52.65;100223.59;2055837;28;2386;-78
2024/04/04 03:24:58;;;;;;;;;;;;;;;20.19;52.60;100226.47;2054344;28;3689;-77
2024/04/04 03:25:59;;;;;;;;;;;;;;;20.19;52.69;100230.06;2059088;28;2330;-78
2024/04/04 03:26:59;;;;;;;;;;;;;;;20.18;52.80;100234.38;2056369;28;2297;-78
2024/04/04 03:28:00;;;;;;;;;;;;;;;20.18;52.72;100227.84;2062114;28;2209;-77
2024/04/04 03:29:00;;;;;;;;;;;;;;;20.18;52.83;100227.84;2051773;28;2468;-78
2024/04/04 03:30:01;;;;;;;;;;;;;;;20.18;52.91;100227.84;2059008;28;6197;-71
2024/04/04 03:31:01;;;;;;;;;;;;;;;20.18;52.96;100224.97;2060046;28;2462;-80
2024/04/04 03:32:03;;;;;;;;;;;;;;;20.18;53.23;100228.63;2053962;28;1703;-78
2024/04/04 03:33:03;;;;;;;;;;;;;;;20.22;53.07;100239.50;2052532;28;2071;-80
2024/04/04 03:34:04;;;;;;;;;;;;;;;20.20;53.00;100230.81;2055032;28;2242;-80
2024/04/04 03:35:04;;;;;;;;;;;;;;;20.20;52.71;100236.56;2056693;28;1953;-79
2024/04/04 03:36:05;;;;;;;;;;;;;;;20.19;52.91;100235.09;2054917;28;2285;-80
2024/04/04 03:37:05;;;;;;;;;;;;;;;20.19;53.03;100235.09;2056120;28;1629;-79
2024/04/04 03:38:05;;;;;;;;;;;;;;;20.19;53.07;100230.06;2054412;28;2186;-80
2024/04/04 03:39:06;;;;;;;;;;;;;;;20.20;53.02;100239.44;2062841;28;2127;-80
2024/04/04 03:40:07;;;;;;;;;;;;;;;20.21;53.02;100238.03;2062980;28;2691;-79
2024/04/04 03:41:08;;;;;;;;;;;;;;;20.22;52.83;100239.50;2049609;28;3327;-79
2024/04/04 03:42:08;;;;;;;;;;;;;;;20.23;52.95;100244.59;2055391;28;2138;-79
2024/04/04 03:43:08;;;;;;;;;;;;;;;20.23;52.92;100241.72;2055727;28;2001;-78
2024/04/04 03:44:09;;;;;;;;;;;;;;;20.24;52.87;100248.22;2063472;28;1769;-80
2024/04/04 03:45:09;;;;;;;;;;;;;;;20.25;52.81;100241.81;2061570;28;1833;-79
2024/04/04 03:46:11;;;;;;;;;;;;;;;20.26;52.73;100245.41;2057391;28;2500;-80
2024/04/04 03:47:12;;;;;;;;;;;;;;;20.26;52.84;100245.41;2051233;28;1933;-80
2024/04/04 03:48:12;;;;;;;;;;;;;;;20.26;53.23;100246.16;2056184;28;2218;-80
2024/04/04 03:49:13;;;;;;;;;;;;;;;20.27;53.07;100241.13;2055075;28;2246;-80
2024/04/04 03:50:13;;;;;;;;;;;;;;;20.27;53.01;100241.88;2054530;28;1981;-80
2024/04/04 03:51:14;;;;;;;;;;;;;;;20.27;53.08;100244.75;2059042;28;1854;-80
2024/04/04 03:52:14;;;;;;;;;;;;;;;20.28;53.31;100242.63;2061864;28;1861;-80
2024/04/04 03:53:15;;;;;;;;;;;;;;;20.28;53.01;100254.84;2060836;28;2207;-80
2024/04/04 03:54:15;;;;;;;;;;;;;;;20.28;52.95;100248.38;2059600;28;1742;-80
2024/04/04 03:55:16;;;;;;;;;;;;;;;20.28;53.04;100251.25;2052579;28;2252;-80
2024/04/04 03:56:16;;;;;;;;;;;;;;;20.27;52.89;100256.25;2053625;28;2273;-80
2024/04/04 03:57:17;;;;;;;;;;;;;;;20.29;53.13;100252.69;2053104;28;2303;-80
2024/04/04 03:58:18;;;;;;;;;;;;;;;20.27;53.36;100252.63;2049783;28;3340;-80
2024/04/04 03:59:19;;;;;;;;;;;;;;;20.29;53.33;100255.59;2049371;28;2267;-80
2024/04/04 04:00:19;;;;;;;;;;;;;;;20.28;53.32;100257.00;2057711;28;6185;-80
2024/04/04 04:01:19;;;;;;;;;;;;;;;20.27;53.45;100258.38;2052168;28;3142;-80
2024/04/04 04:02:20;;;;;;;;;;;;;;;20.27;53.14;100255.50;2051768;28;2322;-79
2024/04/04 04:03:20;;;;;;;;;;;;;;;20.27;53.27;100258.38;2053711;28;2179;-80
2024/04/04 04:04:21;;;;;;;;;;;;;;;20.26;52.99;100259.78;2062874;28;1795;-80
2024/04/04 04:05:21;;;;;;;;;;;;;;;20.26;52.97;100263.41;2061946;28;1891;-79
2024/04/04 04:06:21;;;;;;;;;;;;;;;20.26;53.21;100269.16;2052836;28;2294;-80
2024/04/04 04:07:22;;;;;;;;;;;;;;;20.26;53.21;100262.66;2055906;28;1812;-80
2024/04/04 04:08:22;;;;;;;;;;;;;;;20.26;52.99;100256.91;2059754;28;2299;-80
2024/04/04 04:09:23;;;;;;;;;;;;;;;20.25;53.05;100267.69;2069081;28;2162;-79
2024/04/04 04:10:27;;;;;;;;;;;;;;;20.26;52.96;100265.53;2059079;28;2178;-79
2024/04/04 04:11:28;;;;;;;;;;;;;;;20.25;53.17;100261.94;2052875;28;2186;-80
2024/04/04 04:12:28;;;;;;;;;;;;;;;20.24;53.05;100271.94;2059264;28;2236;-80
2024/04/04 04:13:28;;;;;;;;;;;;;;;20.25;52.98;100266.94;2063690;28;2212;-80
2024/04/04 04:14:29;;;;;;;;;;;;;;;20.24;52.99;100266.19;2062079;28;2432;-80
2024/04/04 04:15:29;;;;;;;;;;;;;;;20.25;53.16;100266.94;2060991;28;2331;-79
2024/04/04 04:16:30;;;;;;;;;;;;;;;20.23;53.30;100270.47;2052286;28;2190;-79
2024/04/04 04:17:31;;;;;;;;;;;;;;;20.24;53.29;100274.09;2059026;28;2182;-80
2024/04/04 04:18:31;;;;;;;;;;;;;;;20.25;53.01;100266.94;2062338;28;1858;-79
2024/04/04 04:19:32;;;;;;;;;;;;;;;20.25;53.04;100270.56;2053373;28;3491;-80
2024/04/04 04:21:54;;;;;;;;;;;;;;;20.24;53.07;100271.94;2059615;28;1575;-80
2024/04/04 04:22:54;;;;;;;;;;;;;;;20.25;52.92;100278.44;2050766;28;1677;-80
2024/04/04 04:23:57;;;;;;;;;;;;;;;20.26;53.05;100280.66;2059748;28;1552;-80
2024/04/04 04:24:57;;;;;;;;;;;;;;;20.27;53.09;100290.75;2062615;28;2229;-79
2024/04/04 04:25:58;;;;;;;;;;;;;;;20.27;53.27;100281.38;2063563;28;2241;-80
2024/04/04 04:26:58;;;;;;;;;;;;;;;20.27;53.34;100281.38;2058284;28;2106;-79
2024/04/04 04:27:59;;;;;;;;;;;;;;;20.28;53.41;100282.88;2051925;28;2257;-80
2024/04/04 04:28:59;;;;;;;;;;;;;;;20.29;53.21;100284.34;2054364;28;3843;-80
2024/04/04 04:29:59;;;;;;;;;;;;;;;20.28;53.10;100283.59;2051988;28;2250;-80
2024/04/04 04:31:00;;;;;;;;;;;;;;;20.29;53.58;100287.97;2050521;28;5989;-79
2024/04/04 04:32:00;;;;;;;;;;;;;;;20.30;53.50;100285.81;2060617;28;1793;-78
2024/04/04 04:33:01;;;;;;;;;;;;;;;20.30;53.52;100285.81;2064211;28;1693;-80
2024/04/04 04:34:03;;;;;;;;;;;;;;;20.30;53.55;100289.44;2053065;28;1937;-79
2024/04/04 04:35:04;;;;;;;;;;;;;;;20.30;53.84;100277.94;2063222;28;1850;-79
2024/04/04 04:36:05;;;;;;;;;;;;;;;20.30;53.95;100282.94;2057231;28;1943;-80
2024/04/04 04:37:05;;;;;;;;;;;;;;;20.29;54.13;100285.09;2060034;28;1864;-80
2024/04/04 04:38:05;;;;;;;;;;;;;;;20.30;53.86;100285.81;2056972;28;2158;-81
2024/04/04 04:39:06;;;;;;;;;;;;;;;20.30;53.98;100280.81;2053192;28;2332;-80
2024/04/04 04:40:06;;;;;;;;;;;;;;;20.29;54.03;100284.34;2059528;28;1947;-80
2024/04/04 04:41:08;;;;;;;;;;;;;;;20.30;54.04;100285.81;2066220;28;2410;-78
2024/04/04 04:42:09;;;;;;;;;;;;;;;20.30;54.14;100291.56;2057125;28;2491;-80
2024/04/04 04:43:09;;;;;;;;;;;;;;;20.29;54.17;100290.84;2054868;28;1842;-80
2024/04/04 04:44:09;;;;;;;;;;;;;;;20.30;53.88;100285.81;2057966;28;1905;-79
2024/04/04 04:45:10;;;;;;;;;;;;;;;20.29;53.83;100296.59;2059684;28;2249;-80
2024/04/04 04:46:11;;;;;;;;;;;;;;;20.29;53.90;100290.09;2053323;28;3624;-79
2024/04/04 04:47:12;;;;;;;;;;;;;;;20.30;53.84;100291.56;2052679;28;2621;-80
2024/04/04 04:48:12;;;;;;;;;;;;;;;20.28;53.84;100292.22;2061231;28;1634;-80
2024/04/04 04:49:12;;;;;;;;;;;;;;;20.29;53.88;100295.84;2065760;28;2227;-79
2024/04/04 04:50:13;;;;;;;;;;;;;;;20.28;53.79;100300.84;2062259;28;1754;-80
2024/04/04 04:51:13;;;;;;;;;;;;;;;20.29;53.63;100292.97;2050554;28;1922;-80
2024/04/04 04:52:16;;;;;;;;;;;;;;;20.28;53.95;100300.13;2062240;28;1813;-80
2024/04/04 04:53:17;;;;;;;;;;;;;;;20.28;53.60;100300.13;2062630;28;1747;-80
2024/04/04 04:54:18;;;;;;;;;;;;;;;20.27;53.73;100290.75;2054185;28;2187;-80
2024/04/04 04:55:18;;;;;;;;;;;;;;;20.27;53.68;100292.88;2052756;28;2222;-80
2024/04/04 04:56:19;;;;;;;;;;;;;;;20.27;53.40;100298.63;2052547;28;2328;-80
2024/04/04 04:57:19;;;;;;;;;;;;;;;20.27;53.60;100292.88;2061243;28;2265;-79
2024/04/04 04:58:20;;;;;;;;;;;;;;;20.26;53.37;100297.16;2062367;28;2423;-80
2024/04/04 04:59:20;;;;;;;;;;;;;;;20.25;53.68;100284.94;2057134;28;1908;-80
2024/04/04 05:00:22;;;;;;;;;;;;;;;20.24;53.59;100283.44;2054019;28;6050;-80
2024/04/04 05:01:23;;;;;;;;;;;;;;;20.25;53.37;100289.94;2063372;28;1637;-80
2024/04/04 05:02:23;;;;;;;;;;;;;;;20.25;53.47;100296.44;2060797;28;1627;-80
2024/04/04 05:03:24;;;;;;;;;;;;;;;20.25;53.53;100301.44;2053497;28;3399;-80
2024/04/04 05:04:25;;;;;;;;;;;;;;;20.24;53.58;100294.22;2054691;28;1796;-80
2024/04/04 05:05:25;;;;;;;;;;;;;;;20.24;53.51;100294.94;2049649;28;1640;-79
2024/04/04 05:06:25;;;;;;;;;;;;;;;20.24;53.36;100303.56;2058298;28;1846;-78
2024/04/04 05:07:26;;;;;;;;;;;;;;;20.24;53.27;100300.69;2053227;28;1684;-79
2024/04/04 05:08:27;;;;;;;;;;;;;;;20.24;53.51;100299.97;2058333;28;1806;-79
2024/04/04 05:09:27;;;;;;;;;;;;;;;20.23;53.60;100299.22;2058329;28;1940;-77
2024/04/04 05:10:29;;;;;;;;;;;;;;;20.22;53.53;100297.00;2054178;28;1981;-78
2024/04/04 05:11:30;;;;;;;;;;;;;;;20.22;53.57;100299.88;2056032;28;1675;-78
2024/04/04 05:12:30;;;;;;;;;;;;;;;20.23;53.67;100298.50;2052867;28;1881;-78
2024/04/04 05:13:31;;;;;;;;;;;;;;;20.24;53.34;100300.69;2053528;28;1945;-76
2024/04/04 05:14:31;;;;;;;;;;;;;;;20.25;53.35;100307.19;2058379;28;1923;-79
2024/04/04 05:15:41;;;;;;;;;;;;;;;20.24;53.68;100297.09;2056310;28;2228;-80
2024/04/04 05:16:42;;;;;;;;;;;;;;;20.26;53.65;100297.16;2052514;28;2283;-80
2024/04/04 05:17:42;;;;;;;;;;;;;;;20.26;53.34;100300.78;2060732;28;2594;-81